createdAt,value
2019-02-27T00:00:30.242Z,1023.30
2019-02-27T00:01:30.235Z,1023.29
2019-02-27T00:02:30.230Z,1023.26
2019-02-27T00:03:30.218Z,1023.28
2019-02-27T00:04:30.210Z,1023.27
2019-02-27T00:05:30.204Z,1023.25
2019-02-27T00:06:30.396Z,1023.22
2019-02-27T00:08:30.181Z,1023.17
2019-02-27T00:09:32.715Z,1023.21
2019-02-27T00:10:30.163Z,1023.16
2019-02-27T00:11:30.155Z,1023.13
2019-02-27T00:12:30.151Z,1023.14
2019-02-27T00:13:30.142Z,1023.16
2019-02-27T00:14:31.165Z,1023.11
2019-02-27T00:15:30.123Z,1023.14
2019-02-27T00:17:30.109Z,1023.14
2019-02-27T00:19:31.472Z,1023.11
2019-02-27T00:20:30.089Z,1023.11
2019-02-27T00:21:30.076Z,1023.08
2019-02-27T00:22:30.074Z,1023.06
2019-02-27T00:23:30.063Z,1023.03
2019-02-27T00:24:30.621Z,1023.01
2019-02-27T00:25:30.050Z,1023.02
2019-02-27T00:26:30.039Z,1023.02
2019-02-27T00:27:30.027Z,1023.00
2019-02-27T00:28:30.026Z,1023.02
2019-02-27T00:29:30.012Z,1023.00
2019-02-27T00:30:30.010Z,1023.01
2019-02-27T00:31:29.999Z,1022.97
2019-02-27T00:32:29.993Z,1022.95
2019-02-27T00:33:29.984Z,1022.97
2019-02-27T00:34:32.854Z,1022.96
2019-02-27T00:35:29.972Z,1022.95
2019-02-27T00:36:29.957Z,1022.94
2019-02-27T00:37:29.951Z,1022.93
2019-02-27T00:38:29.944Z,1022.94
2019-02-27T00:39:31.355Z,1022.92
2019-02-27T00:40:30.134Z,1022.94
2019-02-27T00:41:29.920Z,1022.91
2019-02-27T00:42:33.470Z,1022.91
2019-02-27T00:43:29.900Z,1022.93
2019-02-27T00:44:33.957Z,1022.90
2019-02-27T00:45:29.887Z,1022.86
2019-02-27T00:46:29.881Z,1022.84
2019-02-27T00:47:29.868Z,1022.84
2019-02-27T00:48:29.862Z,1022.83
2019-02-27T00:49:32.332Z,1022.78
2019-02-27T00:50:29.850Z,1022.75
2019-02-27T00:51:29.842Z,1022.77
2019-02-27T00:52:29.833Z,1022.77
2019-02-27T00:53:29.825Z,1022.74
2019-02-27T00:54:31.361Z,1022.80
2019-02-27T00:55:29.813Z,1022.76
2019-02-27T00:56:29.806Z,1022.72
2019-02-27T00:57:29.790Z,1022.73
2019-02-27T00:58:29.787Z,1022.74
2019-02-27T00:59:32.932Z,1022.71
2019-02-27T01:00:29.766Z,1022.68
2019-02-27T01:01:29.760Z,1022.70
2019-02-27T01:03:29.747Z,1022.65
2019-02-27T01:04:29.943Z,1022.62
2019-02-27T01:05:29.735Z,1022.62
2019-02-27T01:06:29.928Z,1022.65
2019-02-27T01:07:29.719Z,1022.60
2019-02-27T01:08:29.906Z,1022.61
2019-02-27T01:09:29.695Z,1022.62
2019-02-27T01:10:29.691Z,1022.63
2019-02-27T01:11:29.682Z,1022.61
2019-02-27T01:12:29.676Z,1022.59
2019-02-27T01:13:31.269Z,1022.61
2019-02-27T01:14:29.657Z,1022.56
2019-02-27T01:15:29.654Z,1022.58
2019-02-27T01:16:29.646Z,1022.56
2019-02-27T01:17:29.632Z,1022.57
2019-02-27T01:18:30.764Z,1022.62
2019-02-27T01:19:29.622Z,1022.56
2019-02-27T01:20:29.612Z,1022.55
2019-02-27T01:21:29.604Z,1022.55
2019-02-27T01:22:29.593Z,1022.51
2019-02-27T01:24:29.785Z,1022.53
2019-02-27T01:25:29.569Z,1022.52
2019-02-27T01:27:29.554Z,1022.43
2019-02-27T01:28:29.546Z,1022.46
2019-02-27T01:29:29.536Z,1022.45
2019-02-27T01:30:29.527Z,1022.44
2019-02-27T01:31:29.524Z,1022.41
2019-02-27T01:32:31.159Z,1022.34
2019-02-27T01:33:29.507Z,1022.34
2019-02-27T01:34:29.507Z,1022.30
2019-02-27T01:35:29.495Z,1022.29
2019-02-27T01:36:29.682Z,1022.32
2019-02-27T01:37:31.661Z,1022.32
2019-02-27T01:38:29.471Z,1022.30
2019-02-27T01:39:29.463Z,1022.31
2019-02-27T01:40:29.458Z,1022.27
2019-02-27T01:41:29.442Z,1022.29
2019-02-27T01:43:29.429Z,1022.25
2019-02-27T01:44:29.425Z,1022.22
2019-02-27T01:45:29.416Z,1022.23
2019-02-27T01:46:29.402Z,1022.25
2019-02-27T01:47:29.391Z,1022.24
2019-02-27T01:48:29.389Z,1022.22
2019-02-27T01:49:29.379Z,1022.23
2019-02-27T01:50:29.370Z,1022.22
2019-02-27T01:51:29.368Z,1022.19
2019-02-27T01:52:29.357Z,1022.20
2019-02-27T01:53:29.552Z,1022.18
2019-02-27T01:55:29.336Z,1022.17
2019-02-27T01:56:29.717Z,1022.15
2019-02-27T01:57:29.318Z,1022.11
2019-02-27T01:58:29.309Z,1022.14
2019-02-27T01:59:29.297Z,1022.10
2019-02-27T02:00:29.291Z,1022.11
2019-02-27T02:01:30.262Z,1022.11
2019-02-27T02:02:29.273Z,1022.10
2019-02-27T02:03:29.263Z,1022.07
2019-02-27T02:04:29.262Z,1022.07
2019-02-27T02:05:29.256Z,1022.05
2019-02-27T02:06:32.029Z,1022.01
2019-02-27T02:07:29.237Z,1021.97
2019-02-27T02:09:29.220Z,1021.91
2019-02-27T02:10:29.208Z,1021.89
2019-02-27T02:11:29.202Z,1021.88
2019-02-27T02:12:29.196Z,1021.88
2019-02-27T02:13:29.189Z,1021.82
2019-02-27T02:14:29.181Z,1021.85
2019-02-27T02:15:29.175Z,1021.83
2019-02-27T02:16:29.164Z,1021.84
2019-02-27T02:17:29.155Z,1021.79
2019-02-27T02:18:29.354Z,1021.77
2019-02-27T02:19:29.139Z,1021.76
2019-02-27T02:20:29.334Z,1021.72
2019-02-27T02:21:29.123Z,1021.70
2019-02-27T02:22:29.114Z,1021.69
2019-02-27T02:23:29.102Z,1021.66
2019-02-27T02:24:29.101Z,1021.66
2019-02-27T02:25:29.095Z,1021.65
2019-02-27T02:27:29.076Z,1021.57
2019-02-27T02:28:29.068Z,1021.55
2019-02-27T02:29:29.061Z,1021.56
2019-02-27T02:30:29.979Z,1021.51
2019-02-27T02:31:29.246Z,1021.54
2019-02-27T02:32:29.036Z,1021.48
2019-02-27T02:33:30.271Z,1021.51
2019-02-27T02:34:29.020Z,1021.46
2019-02-27T02:35:29.008Z,1021.46
2019-02-27T02:36:29.005Z,1021.42
2019-02-27T02:37:28.991Z,1021.42
2019-02-27T02:38:28.991Z,1021.37
2019-02-27T02:39:28.981Z,1021.37
2019-02-27T02:40:31.166Z,1021.33
2019-02-27T02:41:28.960Z,1021.36
2019-02-27T02:42:28.951Z,1021.37
2019-02-27T02:43:28.947Z,1021.34
2019-02-27T02:44:28.941Z,1021.32
2019-02-27T02:45:32.765Z,1021.32
2019-02-27T02:46:28.915Z,1021.32
2019-02-27T02:47:28.918Z,1021.32
2019-02-27T02:48:31.034Z,1021.32
2019-02-27T02:50:28.887Z,1021.23
2019-02-27T02:51:29.995Z,1021.22
2019-02-27T02:52:28.874Z,1021.24
2019-02-27T02:53:28.866Z,1021.25
2019-02-27T02:55:28.848Z,1021.18
2019-02-27T02:56:28.840Z,1021.21
2019-02-27T02:57:29.035Z,1021.18
2019-02-27T02:58:28.819Z,1021.16
2019-02-27T02:59:28.812Z,1021.15
2019-02-27T03:00:28.801Z,1021.14
2019-02-27T03:01:28.792Z,1021.16
2019-02-27T03:02:29.756Z,1021.12
2019-02-27T03:03:28.784Z,1021.12
2019-02-27T03:04:28.776Z,1021.12
2019-02-27T03:05:28.760Z,1021.08
2019-02-27T03:06:34.570Z,1021.11
2019-02-27T03:07:28.747Z,1021.06
2019-02-27T03:08:28.745Z,1021.01
2019-02-27T03:09:30.661Z,1021.01
2019-02-27T03:10:28.724Z,1021.00
2019-02-27T03:11:28.728Z,1020.95
2019-02-27T03:12:30.969Z,1020.94
2019-02-27T03:13:28.700Z,1020.91
2019-02-27T03:14:28.686Z,1020.89
2019-02-27T03:15:29.613Z,1020.87
2019-02-27T03:16:28.676Z,1020.85
2019-02-27T03:17:28.662Z,1020.84
2019-02-27T03:19:28.648Z,1020.79
2019-02-27T03:20:28.642Z,1020.76
2019-02-27T03:21:28.966Z,1020.72
2019-02-27T03:22:28.623Z,1020.74
2019-02-27T03:24:29.052Z,1020.71
2019-02-27T03:26:28.585Z,1020.66
2019-02-27T03:28:28.569Z,1020.71
2019-02-27T03:29:28.559Z,1020.69
2019-02-27T03:30:34.790Z,1020.66
2019-02-27T03:31:28.541Z,1020.63
2019-02-27T03:32:28.738Z,1020.61
2019-02-27T03:33:28.542Z,1020.60
2019-02-27T03:34:28.719Z,1020.56
2019-02-27T03:35:29.449Z,1020.56
2019-02-27T03:37:28.495Z,1020.55
2019-02-27T03:38:28.485Z,1020.53
2019-02-27T03:39:34.623Z,1020.56
2019-02-27T03:40:28.473Z,1020.51
2019-02-27T03:41:28.462Z,1020.57
2019-02-27T03:42:30.797Z,1020.55
2019-02-27T03:43:28.449Z,1020.55
2019-02-27T03:44:28.432Z,1020.56
2019-02-27T03:46:28.617Z,1020.58
2019-02-27T03:47:28.414Z,1020.57
2019-02-27T03:48:28.501Z,1020.56
2019-02-27T03:49:28.395Z,1020.57
2019-02-27T03:50:28.384Z,1020.62
2019-02-27T03:51:28.378Z,1020.59
2019-02-27T03:52:28.365Z,1020.56
2019-02-27T03:53:28.364Z,1020.56
2019-02-27T03:54:28.353Z,1020.53
2019-02-27T03:55:31.891Z,1020.49
2019-02-27T03:56:28.333Z,1020.48
2019-02-27T03:57:28.329Z,1020.48
2019-02-27T03:58:30.602Z,1020.47
2019-02-27T03:59:28.308Z,1020.47
2019-02-27T04:00:28.297Z,1020.44
2019-02-27T04:01:30.598Z,1020.40
2019-02-27T04:02:28.287Z,1020.39
2019-02-27T04:03:28.283Z,1020.45
2019-02-27T04:04:30.584Z,1020.44
2019-02-27T04:05:28.255Z,1020.44
2019-02-27T04:07:31.459Z,1020.49
2019-02-27T04:08:28.235Z,1020.50
2019-02-27T04:09:28.226Z,1020.51
2019-02-27T04:10:31.427Z,1020.52
2019-02-27T04:11:28.209Z,1020.55
2019-02-27T04:12:28.203Z,1020.52
2019-02-27T04:13:28.186Z,1020.53
2019-02-27T04:14:28.185Z,1020.57
2019-02-27T04:15:28.175Z,1020.55
2019-02-27T04:16:29.416Z,1020.54
2019-02-27T04:17:28.177Z,1020.55
2019-02-27T04:18:28.623Z,1020.53
2019-02-27T04:19:28.136Z,1020.59
2019-02-27T04:20:28.132Z,1020.54
2019-02-27T04:21:28.125Z,1020.62
2019-02-27T04:22:28.116Z,1020.56
2019-02-27T04:23:28.105Z,1020.53
2019-02-27T04:25:31.047Z,1020.52
2019-02-27T04:26:28.075Z,1020.48
2019-02-27T04:27:28.080Z,1020.50
2019-02-27T04:28:29.968Z,1020.49
2019-02-27T04:29:28.056Z,1020.46
2019-02-27T04:30:28.048Z,1020.41
2019-02-27T04:31:30.587Z,1020.45
2019-02-27T04:32:28.029Z,1020.43
2019-02-27T04:33:28.269Z,1020.45
2019-02-27T04:34:28.012Z,1020.41
2019-02-27T04:35:28.000Z,1020.40
2019-02-27T04:36:27.995Z,1020.43
2019-02-27T04:37:27.986Z,1020.42
2019-02-27T04:38:28.204Z,1020.39
2019-02-27T04:39:27.976Z,1020.38
2019-02-27T04:40:27.963Z,1020.38
2019-02-27T04:41:28.154Z,1020.34
2019-02-27T04:42:27.941Z,1020.34
2019-02-27T04:43:31.985Z,1020.34
2019-02-27T04:44:27.933Z,1020.35
2019-02-27T04:45:27.920Z,1020.35
2019-02-27T04:47:29.240Z,1020.34
2019-02-27T04:48:30.016Z,1020.35
2019-02-27T04:49:27.883Z,1020.34
2019-02-27T04:50:27.879Z,1020.37
2019-02-27T04:52:27.854Z,1020.34
2019-02-27T04:53:31.611Z,1020.32
2019-02-27T04:54:27.840Z,1020.33
2019-02-27T04:55:27.831Z,1020.32
2019-02-27T04:57:27.816Z,1020.31
2019-02-27T04:58:27.805Z,1020.30
2019-02-27T04:59:27.794Z,1020.27
2019-02-27T05:00:27.791Z,1020.27
2019-02-27T05:01:28.189Z,1020.26
2019-02-27T05:02:27.773Z,1020.24
2019-02-27T05:03:28.517Z,1020.19
2019-02-27T05:04:27.755Z,1020.20
2019-02-27T05:05:27.750Z,1020.22
2019-02-27T05:06:27.741Z,1020.27
2019-02-27T05:07:27.730Z,1020.26
2019-02-27T05:08:27.824Z,1020.24
2019-02-27T05:09:27.716Z,1020.27
2019-02-27T05:10:27.707Z,1020.27
2019-02-27T05:11:27.697Z,1020.33
2019-02-27T05:12:27.688Z,1020.29
2019-02-27T05:13:27.676Z,1020.29
2019-02-27T05:14:28.227Z,1020.27
2019-02-27T05:15:27.661Z,1020.25
2019-02-27T05:16:27.654Z,1020.19
2019-02-27T05:17:27.645Z,1020.15
2019-02-27T05:18:29.451Z,1020.16
2019-02-27T05:19:27.627Z,1020.19
2019-02-27T05:20:27.619Z,1020.16
2019-02-27T05:21:27.605Z,1020.13
2019-02-27T05:23:27.586Z,1020.12
2019-02-27T05:24:27.586Z,1020.13
2019-02-27T05:25:27.577Z,1020.12
2019-02-27T05:26:27.853Z,1020.16
2019-02-27T05:27:27.553Z,1020.17
2019-02-27T05:28:27.549Z,1020.18
2019-02-27T05:29:27.741Z,1020.20
2019-02-27T05:31:27.528Z,1020.20
2019-02-27T05:32:28.339Z,1020.20
2019-02-27T05:33:27.508Z,1020.21
2019-02-27T05:34:27.501Z,1020.24
2019-02-27T05:35:27.486Z,1020.25
2019-02-27T05:36:28.982Z,1020.22
2019-02-27T05:37:27.472Z,1020.21
2019-02-27T05:38:27.664Z,1020.28
2019-02-27T05:39:27.452Z,1020.24
2019-02-27T05:40:27.440Z,1020.27
2019-02-27T05:41:27.436Z,1020.29
2019-02-27T05:42:27.432Z,1020.27
2019-02-27T05:44:27.405Z,1020.32
2019-02-27T05:45:30.353Z,1020.33
2019-02-27T05:46:27.393Z,1020.33
2019-02-27T05:47:27.385Z,1020.33
2019-02-27T05:48:27.373Z,1020.32
2019-02-27T05:49:27.534Z,1020.30
2019-02-27T05:50:27.373Z,1020.31
2019-02-27T05:51:27.353Z,1020.29
2019-02-27T05:52:27.338Z,1020.30
2019-02-27T05:53:27.334Z,1020.25
2019-02-27T05:54:29.975Z,1020.27
2019-02-27T05:55:27.313Z,1020.17
2019-02-27T05:56:27.300Z,1020.19
2019-02-27T05:57:27.295Z,1020.12
2019-02-27T05:58:27.291Z,1020.12
2019-02-27T05:59:29.341Z,1020.09
2019-02-27T06:00:27.267Z,1020.08
2019-02-27T06:01:27.461Z,1020.05
2019-02-27T06:02:27.250Z,1020.05
2019-02-27T06:03:27.247Z,1020.09
2019-02-27T06:04:27.433Z,1020.09
2019-02-27T06:05:27.232Z,1020.06
2019-02-27T06:06:27.217Z,1020.06
2019-02-27T06:07:27.207Z,1020.05
2019-02-27T06:08:27.397Z,1020.03
2019-02-27T06:09:27.195Z,1020.07
2019-02-27T06:10:27.178Z,1020.07
2019-02-27T06:11:29.556Z,1020.10
2019-02-27T06:12:27.166Z,1020.09
2019-02-27T06:13:27.159Z,1020.10
2019-02-27T06:14:27.148Z,1020.08
2019-02-27T06:17:27.166Z,1020.06
2019-02-27T06:18:27.109Z,1020.07
2019-02-27T06:19:27.108Z,1020.04
2019-02-27T06:20:27.096Z,1019.99
2019-02-27T06:21:27.084Z,1020.00
2019-02-27T06:22:27.264Z,1020.02
2019-02-27T06:23:27.071Z,1020.05
2019-02-27T06:24:27.064Z,1020.05
2019-02-27T06:25:27.250Z,1020.02
2019-02-27T06:28:27.024Z,1019.99
2019-02-27T06:29:28.332Z,1019.97
2019-02-27T06:30:27.894Z,1019.96
2019-02-27T06:31:27.001Z,1019.95
2019-02-27T06:32:26.988Z,1019.88
2019-02-27T06:33:26.979Z,1019.90
2019-02-27T06:34:26.974Z,1019.89
2019-02-27T06:35:26.962Z,1019.90
2019-02-27T06:37:26.949Z,1019.87
2019-02-27T06:39:27.131Z,1019.85
2019-02-27T06:40:26.924Z,1019.86
2019-02-27T06:41:26.910Z,1019.82
2019-02-27T06:42:26.982Z,1019.80
2019-02-27T06:43:27.400Z,1019.85
2019-02-27T06:44:26.884Z,1019.79
2019-02-27T06:46:26.873Z,1019.84
2019-02-27T06:47:26.858Z,1019.86
2019-02-27T06:48:26.856Z,1019.83
2019-02-27T06:49:26.840Z,1019.84
2019-02-27T06:50:26.834Z,1019.83
2019-02-27T06:51:26.830Z,1019.87
2019-02-27T06:52:26.819Z,1019.84
2019-02-27T06:53:26.808Z,1019.83
2019-02-27T06:54:26.801Z,1019.87
2019-02-27T06:55:28.124Z,1019.84
2019-02-27T06:56:26.779Z,1019.83
2019-02-27T06:57:26.876Z,1019.82
2019-02-27T06:58:26.761Z,1019.89
2019-02-27T06:59:26.761Z,1019.89
2019-02-27T07:00:26.752Z,1019.90
2019-02-27T07:02:26.735Z,1019.92
2019-02-27T07:03:29.233Z,1019.93
2019-02-27T07:04:26.929Z,1019.94
2019-02-27T07:05:26.704Z,1019.94
2019-02-27T07:06:26.903Z,1019.93
2019-02-27T07:08:26.685Z,1019.94
2019-02-27T07:09:26.672Z,1019.90
2019-02-27T07:10:26.870Z,1019.89
2019-02-27T07:11:26.659Z,1019.88
2019-02-27T07:12:26.651Z,1019.86
2019-02-27T07:13:29.188Z,1019.89
2019-02-27T07:14:26.630Z,1019.86
2019-02-27T07:16:26.613Z,1019.85
2019-02-27T07:18:26.595Z,1019.82
2019-02-27T07:19:26.592Z,1019.83
2019-02-27T07:20:26.585Z,1019.83
2019-02-27T07:21:26.577Z,1019.86
2019-02-27T07:22:26.560Z,1019.85
2019-02-27T07:23:26.558Z,1019.88
2019-02-27T07:24:26.552Z,1019.87
2019-02-27T07:25:26.747Z,1019.86
2019-02-27T07:26:26.530Z,1019.88
2019-02-27T07:27:28.297Z,1019.86
2019-02-27T07:29:27.477Z,1019.84
2019-02-27T07:30:26.498Z,1019.82
2019-02-27T07:31:26.495Z,1019.84
2019-02-27T07:32:26.482Z,1019.87
2019-02-27T07:33:26.472Z,1019.88
2019-02-27T07:34:26.469Z,1019.92
2019-02-27T07:35:29.142Z,1019.94
2019-02-27T07:36:26.658Z,1019.95
2019-02-27T07:37:26.448Z,1019.97
2019-02-27T07:38:26.436Z,1020.01
2019-02-27T07:39:26.432Z,1019.97
2019-02-27T07:40:26.421Z,1019.95
2019-02-27T07:41:26.615Z,1020.00
2019-02-27T07:42:26.406Z,1020.00
2019-02-27T07:43:26.399Z,1020.04
2019-02-27T07:44:26.391Z,1020.02
2019-02-27T07:45:26.385Z,1019.96
2019-02-27T07:46:26.371Z,1019.97
2019-02-27T07:47:26.367Z,1019.99
2019-02-27T07:48:26.364Z,1019.95
2019-02-27T07:50:26.346Z,1019.91
2019-02-27T07:51:26.540Z,1019.89
2019-02-27T07:52:26.331Z,1019.88
2019-02-27T07:53:26.318Z,1019.87
2019-02-27T07:54:28.808Z,1019.85
2019-02-27T07:55:28.450Z,1019.86
2019-02-27T07:57:26.319Z,1019.85
2019-02-27T07:58:28.901Z,1019.86
2019-02-27T07:59:26.280Z,1019.87
2019-02-27T08:00:26.629Z,1019.87
2019-02-27T08:01:26.258Z,1019.87
2019-02-27T08:02:26.255Z,1019.85
2019-02-27T08:03:26.244Z,1019.88
2019-02-27T08:04:26.237Z,1019.87
2019-02-27T08:05:29.021Z,1019.90
2019-02-27T08:07:26.215Z,1019.92
2019-02-27T08:08:26.216Z,1019.95
2019-02-27T08:10:26.196Z,1019.96
2019-02-27T08:11:26.533Z,1019.99
2019-02-27T08:13:27.060Z,1019.98
2019-02-27T08:14:26.371Z,1019.99
2019-02-27T08:15:26.165Z,1019.99
2019-02-27T08:17:26.410Z,1019.96
2019-02-27T08:18:30.154Z,1020.02
2019-02-27T08:19:26.141Z,1020.02
2019-02-27T08:20:26.133Z,1020.02
2019-02-27T08:21:26.126Z,1020.03
2019-02-27T08:22:26.120Z,1020.00
2019-02-27T08:23:26.110Z,1020.03
2019-02-27T08:24:26.126Z,1020.03
2019-02-27T08:26:26.297Z,1020.01
2019-02-27T08:27:26.093Z,1019.96
2019-02-27T08:28:26.293Z,1019.96
2019-02-27T08:30:26.070Z,1019.97
2019-02-27T08:31:28.167Z,1019.94
2019-02-27T08:32:26.063Z,1019.92
2019-02-27T08:33:26.050Z,1019.89
2019-02-27T08:34:26.054Z,1019.87
2019-02-27T08:35:26.038Z,1019.83
2019-02-27T08:36:26.033Z,1019.84
2019-02-27T08:37:26.031Z,1019.84
2019-02-27T08:38:26.027Z,1019.82
2019-02-27T08:39:26.019Z,1019.78
2019-02-27T08:40:26.021Z,1019.74
2019-02-27T08:41:26.008Z,1019.74
2019-02-27T08:42:26.007Z,1019.73
2019-02-27T08:43:26.000Z,1019.74
2019-02-27T08:44:25.997Z,1019.72
2019-02-27T08:45:27.050Z,1019.69
2019-02-27T08:46:25.986Z,1019.71
2019-02-27T08:48:25.974Z,1019.71
2019-02-27T08:49:25.964Z,1019.71
2019-02-27T08:50:25.966Z,1019.68
2019-02-27T08:51:25.963Z,1019.71
2019-02-27T08:52:25.953Z,1019.73
2019-02-27T08:53:26.838Z,1019.69
2019-02-27T08:55:25.938Z,1019.70
2019-02-27T08:56:25.929Z,1019.69
2019-02-27T08:57:25.926Z,1019.65
2019-02-27T08:58:26.753Z,1019.68
2019-02-27T08:59:25.917Z,1019.68
2019-02-27T09:00:25.910Z,1019.64
2019-02-27T09:01:25.908Z,1019.64
2019-02-27T09:02:29.236Z,1019.64
2019-02-27T09:04:25.918Z,1019.63
2019-02-27T09:05:25.891Z,1019.64
2019-02-27T09:06:27.527Z,1019.67
2019-02-27T09:07:25.878Z,1019.64
2019-02-27T09:08:25.882Z,1019.66
2019-02-27T09:09:25.874Z,1019.70
2019-02-27T09:10:26.890Z,1019.68
2019-02-27T09:11:25.860Z,1019.68
2019-02-27T09:12:25.861Z,1019.70
2019-02-27T09:13:25.853Z,1019.69
2019-02-27T09:14:25.850Z,1019.64
2019-02-27T09:15:25.850Z,1019.70
2019-02-27T09:16:26.032Z,1019.71
2019-02-27T09:17:27.362Z,1019.73
2019-02-27T09:18:25.832Z,1019.74
2019-02-27T09:19:25.830Z,1019.71
2019-02-27T09:20:25.824Z,1019.75
2019-02-27T09:21:27.929Z,1019.70
2019-02-27T09:22:25.816Z,1019.75
2019-02-27T09:23:25.825Z,1019.75
2019-02-27T09:24:25.808Z,1019.76
2019-02-27T09:25:25.814Z,1019.81
2019-02-27T09:26:25.806Z,1019.77
2019-02-27T09:27:25.802Z,1019.76
2019-02-27T09:28:25.803Z,1019.71
2019-02-27T09:29:26.003Z,1019.70
2019-02-27T09:30:28.781Z,1019.69
2019-02-27T09:31:25.790Z,1019.71
2019-02-27T09:32:25.790Z,1019.63
2019-02-27T09:33:25.779Z,1019.58
2019-02-27T09:34:26.823Z,1019.60
2019-02-27T09:35:25.777Z,1019.56
2019-02-27T09:36:25.770Z,1019.54
2019-02-27T09:37:25.772Z,1019.54
2019-02-27T09:38:25.763Z,1019.52
2019-02-27T09:39:30.637Z,1019.49
2019-02-27T09:40:25.759Z,1019.46
2019-02-27T09:41:25.762Z,1019.49
2019-02-27T09:42:25.758Z,1019.52
2019-02-27T09:43:27.269Z,1019.55
2019-02-27T09:44:25.946Z,1019.60
2019-02-27T09:45:25.742Z,1019.54
2019-02-27T09:46:25.744Z,1019.58
2019-02-27T09:47:26.469Z,1019.55
2019-02-27T09:48:25.742Z,1019.54
2019-02-27T09:49:25.730Z,1019.59
2019-02-27T09:50:25.730Z,1019.57
2019-02-27T09:51:25.729Z,1019.55
2019-02-27T09:52:27.802Z,1019.57
2019-02-27T09:53:25.721Z,1019.55
2019-02-27T09:54:25.719Z,1019.53
2019-02-27T09:55:25.710Z,1019.54
2019-02-27T09:56:26.080Z,1019.54
2019-02-27T09:57:27.112Z,1019.55
2019-02-27T09:58:25.705Z,1019.54
2019-02-27T10:00:26.630Z,1019.55
2019-02-27T10:01:25.701Z,1019.56
2019-02-27T10:02:25.694Z,1019.58
2019-02-27T10:03:25.697Z,1019.54
2019-02-27T10:04:28.806Z,1019.54
2019-02-27T10:06:25.685Z,1019.55
2019-02-27T10:07:25.689Z,1019.51
2019-02-27T10:08:26.196Z,1019.42
2019-02-27T10:10:25.675Z,1019.36
2019-02-27T10:11:25.882Z,1019.34
2019-02-27T10:12:27.785Z,1019.34
2019-02-27T10:13:25.674Z,1019.30
2019-02-27T10:14:25.673Z,1019.30
2019-02-27T10:15:25.998Z,1019.32
2019-02-27T10:16:25.669Z,1019.31
2019-02-27T10:17:25.661Z,1019.34
2019-02-27T10:18:25.659Z,1019.30
2019-02-27T10:19:26.891Z,1019.33
2019-02-27T10:21:25.659Z,1019.31
2019-02-27T10:22:25.659Z,1019.30
2019-02-27T10:23:30.431Z,1019.31
2019-02-27T10:24:25.655Z,1019.35
2019-02-27T10:25:25.855Z,1019.37
2019-02-27T10:26:25.648Z,1019.34
2019-02-27T10:27:28.692Z,1019.36
2019-02-27T10:28:25.641Z,1019.34
2019-02-27T10:29:25.640Z,1019.33
2019-02-27T10:31:26.123Z,1019.28
2019-02-27T10:32:25.639Z,1019.28
2019-02-27T10:33:25.897Z,1019.32
2019-02-27T10:34:25.630Z,1019.31
2019-02-27T10:35:26.838Z,1019.37
2019-02-27T10:36:25.836Z,1019.34
2019-02-27T10:37:25.698Z,1019.30
2019-02-27T10:38:26.754Z,1019.33
2019-02-27T10:39:25.829Z,1019.29
2019-02-27T10:40:25.829Z,1019.28
2019-02-27T10:41:25.630Z,1019.23
2019-02-27T10:42:25.626Z,1019.21
2019-02-27T10:44:25.820Z,1019.14
2019-02-27T10:45:25.619Z,1019.12
2019-02-27T10:46:25.624Z,1019.08
2019-02-27T10:47:25.615Z,1019.08
2019-02-27T10:48:25.622Z,1019.03
2019-02-27T10:49:25.621Z,1018.99
2019-02-27T10:50:25.622Z,1018.96
2019-02-27T10:51:25.615Z,1019.00
2019-02-27T10:52:25.613Z,1018.97
2019-02-27T10:53:27.457Z,1019.01
2019-02-27T10:54:25.614Z,1019.00
2019-02-27T10:55:26.955Z,1018.95
2019-02-27T10:57:25.609Z,1018.99
2019-02-27T10:58:25.615Z,1018.94
2019-02-27T10:59:25.614Z,1018.93
2019-02-27T11:00:25.789Z,1018.97
2019-02-27T11:01:25.612Z,1018.97
2019-02-27T11:03:27.116Z,1018.97
2019-02-27T11:04:25.619Z,1018.91
2019-02-27T11:06:33.668Z,1018.92
2019-02-27T11:07:25.608Z,1018.93
2019-02-27T11:08:28.634Z,1018.87
2019-02-27T11:09:25.648Z,1018.90
2019-02-27T11:10:26.847Z,1018.84
2019-02-27T11:11:25.611Z,1018.83
2019-02-27T11:12:26.819Z,1018.85
2019-02-27T11:13:25.615Z,1018.84
2019-02-27T11:14:25.639Z,1018.78
2019-02-27T11:15:25.841Z,1018.79
2019-02-27T11:16:27.850Z,1018.81
2019-02-27T11:18:25.622Z,1018.79
2019-02-27T11:19:25.828Z,1018.75
2019-02-27T11:20:25.633Z,1018.73
2019-02-27T11:21:25.635Z,1018.71
2019-02-27T11:22:25.631Z,1018.68
2019-02-27T11:23:25.635Z,1018.66
2019-02-27T11:24:25.640Z,1018.66
2019-02-27T11:25:25.647Z,1018.63
2019-02-27T11:26:25.647Z,1018.59
2019-02-27T11:27:25.649Z,1018.58
2019-02-27T11:28:25.653Z,1018.57
2019-02-27T11:29:25.658Z,1018.57
2019-02-27T11:30:25.663Z,1018.52
2019-02-27T11:31:25.670Z,1018.54
2019-02-27T11:32:25.671Z,1018.57
2019-02-27T11:33:26.180Z,1018.54
2019-02-27T11:34:25.685Z,1018.50
2019-02-27T11:35:26.055Z,1018.49
2019-02-27T11:36:25.696Z,1018.43
2019-02-27T11:37:25.695Z,1018.36
2019-02-27T11:38:25.700Z,1018.36
2019-02-27T11:39:25.708Z,1018.39
2019-02-27T11:40:25.717Z,1018.38
2019-02-27T11:41:25.730Z,1018.31
2019-02-27T11:42:25.730Z,1018.30
2019-02-27T11:43:25.734Z,1018.32
2019-02-27T11:44:25.738Z,1018.30
2019-02-27T11:45:25.951Z,1018.32
2019-02-27T11:46:25.759Z,1018.30
2019-02-27T11:47:25.758Z,1018.27
2019-02-27T11:48:25.768Z,1018.29
2019-02-27T11:49:25.979Z,1018.28
2019-02-27T11:50:25.787Z,1018.26
2019-02-27T11:52:28.670Z,1018.26
2019-02-27T11:53:25.805Z,1018.23
2019-02-27T11:54:26.014Z,1018.17
2019-02-27T11:55:25.820Z,1018.18
2019-02-27T11:56:25.833Z,1018.17
2019-02-27T11:57:27.315Z,1018.14
2019-02-27T11:58:25.848Z,1018.18
2019-02-27T11:59:25.851Z,1018.13
2019-02-27T12:01:25.875Z,1018.11
2019-02-27T12:02:29.109Z,1018.05
2019-02-27T12:03:25.884Z,1018.09
2019-02-27T12:04:25.901Z,1018.05
2019-02-27T12:06:25.915Z,1018.06
2019-02-27T12:07:25.927Z,1018.02
2019-02-27T12:08:26.848Z,1018.00
2019-02-27T12:10:25.953Z,1017.98
2019-02-27T12:11:25.957Z,1017.97
2019-02-27T12:12:25.964Z,1017.97
2019-02-27T12:13:25.979Z,1017.91
2019-02-27T12:14:25.988Z,1017.90
2019-02-27T12:15:27.319Z,1017.88
2019-02-27T12:16:26.006Z,1017.85
2019-02-27T12:17:26.314Z,1017.81
2019-02-27T12:18:26.022Z,1017.82
2019-02-27T12:19:26.035Z,1017.82
2019-02-27T12:20:26.048Z,1017.76
2019-02-27T12:21:26.348Z,1017.74
2019-02-27T12:22:26.062Z,1017.69
2019-02-27T12:24:26.082Z,1017.72
2019-02-27T12:25:28.973Z,1017.69
2019-02-27T12:26:26.107Z,1017.67
2019-02-27T12:27:47.885Z,1017.70
2019-02-27T12:28:26.122Z,1017.68
2019-02-27T12:29:26.567Z,1017.67
2019-02-27T12:30:26.147Z,1017.67
2019-02-27T12:31:26.151Z,1017.67
2019-02-27T12:33:29.187Z,1017.65
2019-02-27T12:34:26.179Z,1017.66
2019-02-27T12:35:26.192Z,1017.66
2019-02-27T12:36:26.203Z,1017.67
2019-02-27T12:37:28.429Z,1017.65
2019-02-27T12:38:26.223Z,1017.62
2019-02-27T12:39:26.235Z,1017.63
2019-02-27T12:40:26.242Z,1017.57
2019-02-27T12:41:26.257Z,1017.59
2019-02-27T12:42:26.270Z,1017.56
2019-02-27T12:43:26.270Z,1017.57
2019-02-27T12:44:26.280Z,1017.57
2019-02-27T12:45:26.768Z,1017.53
2019-02-27T12:46:26.311Z,1017.51
2019-02-27T12:47:26.520Z,1017.53
2019-02-27T12:48:26.328Z,1017.49
2019-02-27T12:49:26.336Z,1017.44
2019-02-27T12:50:29.814Z,1017.42
2019-02-27T12:51:26.355Z,1017.39
2019-02-27T12:52:26.573Z,1017.35
2019-02-27T12:53:26.384Z,1017.30
2019-02-27T12:54:27.414Z,1017.31
2019-02-27T12:57:26.425Z,1017.31
2019-02-27T12:58:26.436Z,1017.33
2019-02-27T12:59:26.444Z,1017.31
2019-02-27T13:01:26.468Z,1017.28
2019-02-27T13:02:35.417Z,1017.26
2019-02-27T13:03:26.690Z,1017.26
2019-02-27T13:04:26.505Z,1017.22
2019-02-27T13:05:27.431Z,1017.22
2019-02-27T13:06:26.525Z,1017.21
2019-02-27T13:07:27.751Z,1017.18
2019-02-27T13:08:26.549Z,1017.15
2019-02-27T13:09:26.757Z,1017.14
2019-02-27T13:10:26.572Z,1017.15
2019-02-27T13:11:26.581Z,1017.11
2019-02-27T13:12:26.590Z,1017.13
2019-02-27T13:13:26.618Z,1017.16